Time;durP1;ratioP1;P1;durP2;ratioP2;P2;SDS_P1;SDS_P2;PMS_P1;PMS_P2;Temp;Humidity;BMP_temperature;BMP_pressure;BME280_temperature;BME280_humidity;BME280_pressure;Samples;Min_cycle;Max_cycle;Signal;HPM_P1;HPM_P2
2023/11/11 00:01:56;;;;;;;27.42;15.93;;;8.50;99.90;;;;;;5101832;27;20246;-61
2023/11/11 00:04:23;;;;;;;24.38;14.82;;;8.50;99.90;;;;;;5094355;27;20203;-60
2023/11/11 00:06:49;;;;;;;19.70;12.60;;;8.50;99.90;;;;;;5122260;27;21068;-62
2023/11/11 00:09:16;;;;;;;20.45;12.85;;;8.50;99.90;;;;;;5120713;27;20184;-61
2023/11/11 00:11:44;;;;;;;20.90;12.73;;;8.60;99.90;;;;;;5121657;27;20177;-59
2023/11/11 00:14:11;;;;;;;20.27;12.13;;;8.60;99.90;;;;;;5121553;27;20189;-57
2023/11/11 00:16:37;;;;;;;20.58;12.40;;;8.60;99.90;;;;;;5120159;27;20727;-63
2023/11/11 00:19:03;;;;;;;20.60;12.45;;;8.60;99.90;;;;;;5121707;27;20261;-59
2023/11/11 00:21:29;;;;;;;18.52;11.45;;;8.60;99.90;;;;;;5120786;27;20184;-61
2023/11/11 00:23:58;;;;;;;15.65;10.88;;;8.60;99.90;;;;;;5121205;27;20237;-63
2023/11/11 00:26:24;;;;;;;17.45;11.48;;;8.60;99.90;;;;;;5119984;27;20275;-60
2023/11/11 00:28:51;;;;;;;21.23;12.18;;;8.60;99.90;;;;;;5121419;27;20190;-62
2023/11/11 00:31:17;;;;;;;20.42;12.05;;;8.60;99.90;;;;;;5120453;27;20196;-58
2023/11/11 00:33:44;;;;;;;16.20;10.65;;;8.60;99.90;;;;;;5121239;27;20192;-57
2023/11/11 00:36:10;;;;;;;17.08;8.77;;;8.60;99.90;;;;;;5102954;27;20691;-58
2023/11/11 00:38:36;;;;;;;13.35;7.18;;;8.50;99.90;;;;;;5120771;27;20181;-56
2023/11/11 00:41:05;;;;;;;15.50;8.63;;;8.50;99.90;;;;;;5120202;28;20644;-55
2023/11/11 00:43:31;;;;;;;16.65;8.70;;;8.50;99.90;;;;;;5121911;28;20236;-55
2023/11/11 00:45:57;;;;;;;16.08;8.30;;;8.40;99.90;;;;;;5121116;28;20328;-61
2023/11/11 00:48:24;;;;;;;19.10;8.80;;;8.40;99.90;;;;;;5100136;28;20430;-63
2023/11/11 00:50:51;;;;;;;14.45;7.90;;;8.30;99.90;;;;;;5121146;28;20188;-57
2023/11/11 00:53:18;;;;;;;11.70;7.18;;;8.30;99.90;;;;;;5120927;28;20188;-60
2023/11/11 00:55:44;;;;;;;17.50;7.80;;;8.30;99.90;;;;;;5120368;28;20184;-62
2023/11/11 00:58:11;;;;;;;16.42;7.55;;;8.20;99.90;;;;;;5121928;28;20192;-63
2023/11/11 01:00:38;;;;;;;19.45;7.03;;;8.20;99.90;;;;;;5121074;28;20272;-59
2023/11/11 01:03:05;;;;;;;15.57;7.38;;;8.10;99.90;;;;;;5122369;27;20265;-59
2023/11/11 01:05:31;;;;;;;14.65;6.40;;;8.10;99.90;;;;;;5125080;27;20189;-64
2023/11/11 01:07:57;;;;;;;12.30;7.07;;;8.00;99.90;;;;;;5104301;27;20196;-61
2023/11/11 01:10:24;;;;;;;16.58;7.22;;;8.00;99.90;;;;;;5104997;27;20612;-60
2023/11/11 01:12:51;;;;;;;17.95;7.10;;;8.00;99.90;;;;;;5124628;27;20250;-54
2023/11/11 01:15:17;;;;;;;11.25;6.85;;;8.00;99.90;;;;;;5124809;27;20192;-62
2023/11/11 01:17:43;;;;;;;12.90;6.93;;;7.90;99.90;;;;;;5100717;27;20189;-55
2023/11/11 01:20:11;;;;;;;14.48;7.03;;;7.90;99.90;;;;;;5123502;27;21078;-61
2023/11/11 01:22:38;;;;;;;14.55;6.20;;;7.90;99.90;;;;;;5107275;27;20217;-61
2023/11/11 01:25:05;;;;;;;17.77;7.20;;;7.90;99.90;;;;;;5124068;27;20196;-53
2023/11/11 01:27:31;;;;;;;14.32;6.53;;;7.90;99.90;;;;;;5123372;27;20189;-58
2023/11/11 01:30:00;;;;;;;17.42;6.78;;;7.80;99.90;;;;;;5124815;27;20191;-60
2023/11/11 01:32:26;;;;;;;15.65;5.85;;;7.80;99.90;;;;;;5106074;27;20215;-59
2023/11/11 01:34:52;;;;;;;11.80;5.15;;;7.80;99.90;;;;;;5107078;27;20636;-59
2023/11/11 01:37:19;;;;;;;11.68;4.25;;;7.80;99.90;;;;;;5105796;27;20180;-58
2023/11/11 01:39:45;;;;;;;9.88;4.28;;;7.80;99.90;;;;;;5124837;27;20189;-61
2023/11/11 01:42:12;;;;;;;12.90;5.43;;;7.80;99.90;;;;;;5097412;28;20229;-62
2023/11/11 01:44:38;;;;;;;11.65;4.50;;;7.80;99.90;;;;;;5105590;28;20226;-59
2023/11/11 01:47:08;;;;;;;9.35;4.88;;;7.80;99.90;;;;;;5103973;28;20241;-59
2023/11/11 01:49:34;;;;;;;9.55;4.00;;;7.70;99.90;;;;;;5104618;27;20272;-60
2023/11/11 01:52:03;;;;;;;8.20;4.35;;;7.70;99.90;;;;;;5103671;28;20201;-59
2023/11/11 01:54:30;;;;;;;6.90;3.83;;;7.70;99.90;;;;;;5091959;28;20181;-59
2023/11/11 01:56:57;;;;;;;13.63;3.80;;;7.70;99.90;;;;;;5101835;27;20196;-59
2023/11/11 01:59:25;;;;;;;12.63;4.57;;;7.70;99.90;;;;;;5102977;28;20194;-58
2023/11/11 02:01:52;;;;;;;11.77;3.92;;;7.60;99.90;;;;;;5102011;28;20216;-58
2023/11/11 02:04:19;;;;;;;7.82;3.45;;;7.60;99.90;;;;;;5102851;28;20181;-58
2023/11/11 02:06:49;;;;;;;6.75;2.70;;;7.60;99.90;;;;;;5102580;28;20302;-57
2023/11/11 02:09:18;;;;;;;7.80;2.35;;;7.60;99.90;;;;;;5103130;28;20652;-59
2023/11/11 02:11:47;;;;;;;6.40;2.10;;;7.60;99.90;;;;;;5099445;28;20181;-60
2023/11/11 02:14:14;;;;;;;3.17;1.90;;;7.50;99.90;;;;;;5102631;28;20280;-59
2023/11/11 02:16:40;;;;;;;6.75;2.47;;;7.50;99.90;;;;;;5102533;28;20198;-63
2023/11/11 02:19:06;;;;;;;4.63;2.13;;;7.50;99.90;;;;;;5103641;28;20193;-55
2023/11/11 02:21:32;;;;;;;4.75;2.67;;;7.40;99.90;;;;;;5102744;28;20206;-56
2023/11/11 02:23:59;;;;;;;6.30;2.13;;;7.40;99.90;;;;;;5096983;28;20192;-59
2023/11/11 02:26:26;;;;;;;6.57;2.20;;;7.40;99.90;;;;;;5101194;28;20205;-58
2023/11/11 02:28:52;;;;;;;6.93;2.20;;;7.40;99.90;;;;;;5085900;28;20191;-61
2023/11/11 02:31:18;;;;;;;5.20;2.13;;;7.40;99.90;;;;;;5101644;28;20189;-60
2023/11/11 02:33:44;;;;;;;6.03;2.45;;;7.40;99.90;;;;;;5090509;28;20300;-63
2023/11/11 02:36:10;;;;;;;7.22;2.55;;;7.40;99.90;;;;;;5098091;28;20262;-60
2023/11/11 02:38:36;;;;;;;9.27;2.28;;;7.50;99.90;;;;;;5093766;28;20193;-59
2023/11/11 02:41:04;;;;;;;9.68;2.63;;;7.50;99.90;;;;;;5100587;28;20192;-63
2023/11/11 02:43:29;;;;;;;8.52;3.28;;;7.50;99.90;;;;;;5086093;28;20245;-58
2023/11/11 02:45:55;;;;;;;7.90;2.50;;;7.60;99.90;;;;;;5100982;28;20189;-62
2023/11/11 02:48:21;;;;;;;7.15;2.47;;;7.60;99.90;;;;;;5099103;28;20181;-63
2023/11/11 02:50:47;;;;;;;5.88;1.83;;;7.60;99.90;;;;;;5102774;28;20239;-62
2023/11/11 02:53:13;;;;;;;10.05;1.80;;;7.60;99.90;;;;;;5102334;28;20404;-55
2023/11/11 02:55:39;;;;;;;5.80;1.73;;;7.60;99.90;;;;;;5100387;28;20551;-60
2023/11/11 02:58:05;;;;;;;5.35;1.80;;;7.60;99.90;;;;;;5095023;28;20209;-58
2023/11/11 03:00:31;;;;;;;3.10;1.33;;;7.60;99.90;;;;;;5100896;28;20189;-59
2023/11/11 03:02:57;;;;;;;6.22;1.70;;;7.60;99.90;;;;;;5085178;28;20220;-61
2023/11/11 03:05:23;;;;;;;4.07;1.58;;;7.60;99.90;;;;;;5101080;28;20239;-59
2023/11/11 03:07:49;;;;;;;9.23;2.20;;;7.60;99.90;;;;;;5100273;28;20227;-58
2023/11/11 03:10:15;;;;;;;4.55;1.75;;;7.60;99.90;;;;;;5100325;28;20189;-60
2023/11/11 03:12:41;;;;;;;6.13;1.65;;;7.60;99.90;;;;;;5099351;28;20582;-59
2023/11/11 03:15:08;;;;;;;11.18;2.15;;;7.60;99.90;;;;;;5098986;28;20649;-58
2023/11/11 03:17:34;;;;;;;3.63;1.67;;;7.60;99.90;;;;;;5103271;28;21162;-60
2023/11/11 03:20:00;;;;;;;6.05;1.65;;;7.60;99.90;;;;;;5099471;28;20268;-61
2023/11/11 03:22:26;;;;;;;6.47;1.30;;;7.60;99.90;;;;;;5100858;28;20221;-59
2023/11/11 03:24:52;;;;;;;6.97;1.42;;;7.60;99.90;;;;;;5099607;28;20482;-60
2023/11/11 03:27:18;;;;;;;2.92;1.35;;;7.70;99.90;;;;;;5100800;28;20212;-60
2023/11/11 03:29:44;;;;;;;5.68;1.90;;;7.70;99.90;;;;;;5102223;28;20184;-57
2023/11/11 03:32:10;;;;;;;4.68;2.20;;;7.70;99.90;;;;;;5098768;28;20778;-62
2023/11/11 03:34:36;;;;;;;3.85;2.05;;;7.80;99.90;;;;;;5102056;28;20673;-57
2023/11/11 03:37:03;;;;;;;4.22;2.00;;;7.80;99.90;;;;;;5101572;28;20185;-56
2023/11/11 03:39:31;;;;;;;3.90;1.50;;;7.80;99.90;;;;;;5101780;28;20189;-61
2023/11/11 03:41:58;;;;;;;7.25;1.50;;;7.80;99.90;;;;;;5101770;27;20281;-60
2023/11/11 03:44:24;;;;;;;4.38;1.50;;;7.70;99.90;;;;;;5104136;27;20187;-58
2023/11/11 03:46:50;;;;;;;7.03;1.70;;;7.70;99.90;;;;;;5122067;27;20379;-58
2023/11/11 03:49:15;;;;;;;5.22;1.10;;;7.60;99.90;;;;;;5122116;27;20188;-63
2023/11/11 03:51:41;;;;;;;4.45;1.05;;;7.70;99.90;;;;;;5098992;27;20207;-61
2023/11/11 03:54:07;;;;;;;3.17;0.98;;;7.60;99.90;;;;;;5104340;27;20727;-59
2023/11/11 03:56:33;;;;;;;4.55;1.20;;;7.60;99.90;;;;;;5119465;27;20193;-59
2023/11/11 03:59:02;;;;;;;3.08;1.00;;;7.70;99.90;;;;;;5101064;27;20193;-60
2023/11/11 04:01:27;;;;;;;3.00;1.10;;;7.70;99.90;;;;;;5082261;27;20220;-60
2023/11/11 04:03:53;;;;;;;1.95;0.93;;;7.70;99.90;;;;;;5122136;27;20185;-56
2023/11/11 04:06:19;;;;;;;4.45;1.58;;;7.70;99.90;;;;;;5120278;27;20577;-63
2023/11/11 04:08:45;;;;;;;4.50;1.70;;;7.70;99.90;;;;;;5093090;27;20188;-57
2023/11/11 04:11:11;;;;;;;4.78;2.83;;;7.70;99.90;;;;;;5103182;27;20636;-58
2023/11/11 04:13:39;;;;;;;6.68;2.88;;;7.70;99.90;;;;;;5103574;27;20813;-60
2023/11/11 04:16:13;;;;;;;5.07;3.08;;;7.70;99.90;;;;;;5078909;27;20238;-61
2023/11/11 04:18:39;;;;;;;8.57;2.60;;;7.70;99.90;;;;;;5101845;27;20551;-56
2023/11/11 04:21:05;;;;;;;5.70;2.88;;;7.70;99.90;;;;;;5119677;27;20237;-60
2023/11/11 04:23:31;;;;;;;4.90;2.83;;;7.60;99.90;;;;;;5122210;27;20231;-59
2023/11/11 04:25:58;;;;;;;4.72;3.13;;;7.60;99.90;;;;;;5101988;27;20226;-58
2023/11/11 04:28:25;;;;;;;8.23;3.30;;;7.60;99.90;;;;;;5101594;27;20390;-62
2023/11/11 04:30:51;;;;;;;5.22;3.15;;;7.70;99.90;;;;;;5120728;27;20184;-60
2023/11/11 04:33:19;;;;;;;3.67;1.98;;;7.70;99.90;;;;;;5122669;27;20184;-57
2023/11/11 04:35:45;;;;;;;5.15;1.20;;;7.70;99.90;;;;;;5120978;27;20176;-59
2023/11/11 04:38:11;;;;;;;7.80;1.30;;;7.70;99.90;;;;;;5101336;28;20184;-62
2023/11/11 04:40:38;;;;;;;3.83;1.30;;;7.70;99.90;;;;;;5120547;27;20188;-58
2023/11/11 04:43:04;;;;;;;3.95;1.20;;;7.80;99.90;;;;;;5096776;28;20723;-60
2023/11/11 04:45:30;;;;;;;8.75;1.27;;;7.80;99.90;;;;;;5120476;28;20211;-54
2023/11/11 04:47:57;;;;;;;2.47;1.00;;;7.80;99.90;;;;;;5119728;28;20276;-60
2023/11/11 04:50:24;;;;;;;8.48;1.17;;;7.80;99.90;;;;;;5120164;28;20180;-61
2023/11/11 04:52:51;;;;;;;2.75;1.00;;;7.80;99.90;;;;;;5122093;28;20192;-58
2023/11/11 04:55:18;;;;;;;2.75;1.20;;;7.90;99.90;;;;;;5120770;28;20196;-56
2023/11/11 04:57:43;;;;;;;4.15;1.42;;;7.90;99.90;;;;;;5097079;28;20233;-58
2023/11/11 05:00:10;;;;;;;2.80;1.63;;;7.90;99.90;;;;;;5098727;28;20215;-55
2023/11/11 05:02:43;;;;;;;3.13;1.50;;;7.90;99.90;;;;;;5104043;28;20582;-59
2023/11/11 05:05:10;;;;;;;3.70;1.80;;;7.80;99.90;;;;;;5100669;28;20219;-60
2023/11/11 05:07:38;;;;;;;5.50;1.67;;;7.90;99.90;;;;;;5122189;28;20184;-59
2023/11/11 05:10:09;;;;;;;4.55;1.48;;;7.90;99.90;;;;;;5120887;28;20188;-56
2023/11/11 05:12:35;;;;;;;3.75;1.80;;;7.90;99.90;;;;;;5119075;28;20640;-62
2023/11/11 05:15:14;;;;;;;3.05;2.20;;;7.90;99.90;;;;;;5121523;28;20531;-61
2023/11/11 05:17:44;;;;;;;5.78;2.60;;;8.00;99.90;;;;;;5121979;28;20199;-57
2023/11/11 05:20:14;;;;;;;6.65;3.20;;;7.90;99.90;;;;;;5120116;28;20192;-59
2023/11/11 05:22:40;;;;;;;4.88;2.65;;;7.90;99.90;;;;;;5117771;28;20293;-62
2023/11/11 05:25:07;;;;;;;5.07;2.40;;;8.00;99.90;;;;;;5121152;28;20203;-61
2023/11/11 05:27:33;;;;;;;4.47;2.50;;;8.00;99.90;;;;;;5121163;28;20193;-60
2023/11/11 05:29:59;;;;;;;5.78;3.50;;;8.00;99.90;;;;;;5121111;28;20493;-57
2023/11/11 05:32:29;;;;;;;8.20;2.70;;;7.90;99.90;;;;;;5120641;28;20750;-59
2023/11/11 05:34:57;;;;;;;4.40;1.95;;;7.90;99.90;;;;;;5102840;28;20524;-58
2023/11/11 05:37:27;;;;;;;6.82;2.33;;;7.80;99.90;;;;;;5120119;28;20211;-59
2023/11/11 05:39:53;;;;;;;8.48;2.42;;;7.80;99.90;;;;;;5102788;28;20236;-59
2023/11/11 05:42:19;;;;;;;3.58;1.30;;;7.70;99.90;;;;;;5117180;28;20236;-59
2023/11/11 05:44:45;;;;;;;1.60;1.30;;;7.70;99.90;;;;;;5119588;28;20240;-56
2023/11/11 05:47:11;;;;;;;2.38;1.10;;;7.70;99.90;;;;;;5120767;28;20355;-59
2023/11/11 05:49:40;;;;;;;6.95;1.48;;;7.60;99.90;;;;;;5121794;27;20740;-59
2023/11/11 05:52:06;;;;;;;3.03;1.10;;;7.60;99.90;;;;;;5123034;27;20185;-60
2023/11/11 05:54:32;;;;;;;2.60;0.95;;;7.70;99.90;;;;;;5125306;27;20184;-58
2023/11/11 05:56:58;;;;;;;2.80;1.20;;;7.60;99.90;;;;;;5123154;27;20303;-59
2023/11/11 05:59:25;;;;;;;1.95;0.90;;;7.60;99.90;;;;;;5125257;27;20193;-59
2023/11/11 06:01:51;;;;;;;3.47;1.30;;;7.70;99.90;;;;;;5125068;27;20200;-59
2023/11/11 06:04:18;;;;;;;3.78;1.08;;;7.60;99.90;;;;;;5124267;27;20237;-59
2023/11/11 06:06:44;;;;;;;3.58;1.10;;;7.70;99.90;;;;;;5124782;27;20283;-61
2023/11/11 06:09:11;;;;;;;3.65;1.05;;;7.70;99.90;;;;;;5125326;27;20184;-60
2023/11/11 06:11:47;;;;;;;5.97;1.33;;;7.70;99.90;;;;;;5123988;27;20180;-60
2023/11/11 06:14:16;;;;;;;4.50;1.33;;;7.70;99.90;;;;;;5125391;27;20180;-59
2023/11/11 06:16:45;;;;;;;3.25;1.42;;;7.80;99.90;;;;;;5123693;27;20264;-57
2023/11/11 06:19:12;;;;;;;4.88;2.33;;;7.80;99.90;;;;;;5124890;27;20275;-61
2023/11/11 06:21:38;;;;;;;6.88;2.40;;;7.80;99.90;;;;;;5123042;27;20185;-60
2023/11/11 06:24:05;;;;;;;8.25;2.78;;;7.80;99.90;;;;;;5122700;27;20193;-59
2023/11/11 06:26:31;;;;;;;5.10;1.77;;;7.80;99.90;;;;;;5098932;27;20709;-61
2023/11/11 06:28:57;;;;;;;5.63;1.88;;;7.80;99.90;;;;;;5122188;27;20687;-61
2023/11/11 06:31:24;;;;;;;4.20;1.40;;;7.80;99.90;;;;;;5123636;27;20255;-59
2023/11/11 06:33:50;;;;;;;6.03;1.10;;;7.80;99.90;;;;;;5123702;27;20232;-58
2023/11/11 06:36:17;;;;;;;4.43;1.10;;;7.80;99.90;;;;;;5121981;27;20192;-59
2023/11/11 06:38:44;;;;;;;9.90;1.30;;;7.70;99.90;;;;;;5124575;27;20276;-59
2023/11/11 06:41:10;;;;;;;4.10;1.33;;;7.70;99.90;;;;;;5122924;27;20172;-56
2023/11/11 06:43:36;;;;;;;8.32;1.27;;;7.70;99.90;;;;;;5124188;27;20766;-56
2023/11/11 06:46:03;;;;;;;6.60;1.05;;;7.70;99.90;;;;;;5121946;27;20236;-57
2023/11/11 06:48:29;;;;;;;7.13;1.27;;;7.70;99.90;;;;;;5122616;27;20209;-57
2023/11/11 06:50:55;;;;;;;6.68;1.52;;;7.70;99.90;;;;;;5122693;27;20259;-58
2023/11/11 06:53:21;;;;;;;5.18;1.10;;;7.60;99.90;;;;;;5105693;27;20275;-57
2023/11/11 06:55:49;;;;;;;4.10;1.20;;;7.60;99.90;;;;;;5121068;27;20202;-54
2023/11/11 06:58:15;;;;;;;9.52;1.50;;;7.60;99.90;;;;;;5122172;27;20313;-58
2023/11/11 07:00:41;;;;;;;3.67;1.40;;;7.70;99.90;;;;;;5121091;27;20184;-54
2023/11/11 07:03:08;;;;;;;5.22;1.50;;;7.70;99.90;;;;;;5121448;27;20220;-59
2023/11/11 07:05:35;;;;;;;18.85;1.80;;;7.70;99.90;;;;;;5120507;27;20192;-59
2023/11/11 07:08:05;;;;;;;8.07;1.40;;;7.70;99.90;;;;;;5119930;27;20279;-59
2023/11/11 07:10:33;;;;;;;5.25;1.40;;;7.70;99.90;;;;;;5120264;27;20761;-57
2023/11/11 07:13:00;;;;;;;5.43;1.40;;;7.70;99.90;;;;;;5120772;27;20185;-59
2023/11/11 07:15:27;;;;;;;2.78;1.40;;;7.70;99.90;;;;;;5120811;27;20191;-54
2023/11/11 07:17:53;;;;;;;4.15;1.40;;;7.60;99.90;;;;;;5101135;27;20192;-60
2023/11/11 07:20:21;;;;;;;3.25;1.50;;;7.60;99.90;;;;;;5120527;27;20196;-54
2023/11/11 07:22:51;;;;;;;5.35;1.40;;;7.60;99.90;;;;;;5120265;27;20205;-56
2023/11/11 07:25:18;;;;;;;11.43;1.70;;;7.60;99.90;;;;;;5120188;27;20204;-57
2023/11/11 07:27:44;;;;;;;6.43;1.42;;;7.60;99.90;;;;;;5101732;27;20184;-57
2023/11/11 07:30:10;;;;;;;6.38;1.55;;;7.60;99.90;;;;;;5120494;27;20211;-56
2023/11/11 07:32:37;;;;;;;6.03;2.00;;;7.60;99.90;;;;;;5120145;27;20248;-59
2023/11/11 07:35:04;;;;;;;4.80;1.77;;;7.60;99.90;;;;;;5101216;27;20192;-57
2023/11/11 07:37:30;;;;;;;9.55;1.75;;;7.60;99.90;;;;;;5120247;27;20387;-57
2023/11/11 07:39:56;;;;;;;6.75;2.20;;;7.60;99.90;;;;;;5120059;27;20199;-58
2023/11/11 07:42:22;;;;;;;4.15;1.80;;;7.60;99.90;;;;;;5120105;27;20236;-58
2023/11/11 07:44:48;;;;;;;3.90;1.42;;;7.50;99.90;;;;;;5120326;27;20328;-55
2023/11/11 07:47:15;;;;;;;6.85;2.25;;;7.50;99.90;;;;;;5100869;27;20228;-58
2023/11/11 07:49:43;;;;;;;6.35;1.90;;;7.50;99.90;;;;;;5118544;27;20191;-57
2023/11/11 07:52:09;;;;;;;2.83;1.73;;;7.50;99.90;;;;;;5118862;27;20633;-55
2023/11/11 07:54:35;;;;;;;8.77;2.20;;;7.50;99.90;;;;;;5120251;27;20768;-60
2023/11/11 07:57:07;;;;;;;6.72;2.22;;;7.50;99.90;;;;;;5101036;27;20213;-57
2023/11/11 07:59:45;;;;;;;5.60;1.40;;;7.50;99.90;;;;;;5101084;27;20208;-59
2023/11/11 08:02:12;;;;;;;4.00;1.80;;;7.50;99.90;;;;;;5118579;27;20208;-62
2023/11/11 08:04:38;;;;;;;5.57;1.25;;;7.50;99.90;;;;;;5120739;27;20237;-60
2023/11/11 08:07:06;;;;;;;4.65;1.33;;;7.40;99.90;;;;;;5119654;27;20177;-56
2023/11/11 08:09:32;;;;;;;2.58;1.08;;;7.40;99.90;;;;;;5119423;27;20184;-57
2023/11/11 08:11:58;;;;;;;3.72;1.27;;;7.40;99.90;;;;;;5118792;27;20211;-59
2023/11/11 08:14:24;;;;;;;5.45;1.20;;;7.40;99.90;;;;;;5119746;27;20220;-56
2023/11/11 08:16:50;;;;;;;2.60;1.30;;;7.50;99.90;;;;;;5098414;27;20294;-59
2023/11/11 08:19:16;;;;;;;5.63;1.45;;;7.50;99.90;;;;;;5101227;27;20335;-53
2023/11/11 08:21:42;;;;;;;4.80;1.20;;;7.40;99.90;;;;;;5075711;28;20296;-57
2023/11/11 08:24:09;;;;;;;2.83;1.13;;;7.50;99.90;;;;;;5119993;27;20223;-55
2023/11/11 08:26:35;;;;;;;7.30;1.50;;;7.40;99.90;;;;;;5100564;27;21099;-57
2023/11/11 08:29:01;;;;;;;7.68;1.77;;;7.40;99.90;;;;;;5101553;27;20272;-57
2023/11/11 08:31:27;;;;;;;4.50;1.10;;;7.40;99.90;;;;;;5118411;27;20198;-55
2023/11/11 08:33:54;;;;;;;5.35;1.33;;;7.40;99.90;;;;;;5084421;27;20193;-58
2023/11/11 08:36:20;;;;;;;7.15;1.30;;;7.40;99.90;;;;;;5116484;27;20395;-59
2023/11/11 08:38:46;;;;;;;7.10;1.40;;;7.40;99.90;;;;;;5118081;27;20271;-56
2023/11/11 08:41:12;;;;;;;3.38;1.10;;;7.40;99.90;;;;;;5118097;27;20265;-51
2023/11/11 08:43:39;;;;;;;6.43;1.02;;;7.40;99.90;;;;;;5088089;28;20237;-55
2023/11/11 08:46:08;;;;;;;2.00;1.02;;;7.50;99.90;;;;;;5097456;28;20189;-57
2023/11/11 08:48:37;;;;;;;3.67;1.10;;;7.40;99.90;;;;;;5096830;28;20475;-57
2023/11/11 08:51:03;;;;;;;7.15;1.40;;;7.50;99.90;;;;;;5093409;28;20181;-56
2023/11/11 08:53:30;;;;;;;4.95;1.20;;;7.50;99.90;;;;;;5088125;28;20181;-59
2023/11/11 08:55:56;;;;;;;4.28;1.10;;;7.50;99.90;;;;;;5099072;28;20644;-56
2023/11/11 08:58:24;;;;;;;2.88;1.30;;;7.50;99.90;;;;;;5080514;28;20193;-55
2023/11/11 09:00:50;;;;;;;4.55;1.40;;;7.50;99.90;;;;;;5096776;28;20182;-57
2023/11/11 09:03:17;;;;;;;5.55;1.38;;;7.60;99.90;;;;;;5100960;28;20470;-57
2023/11/11 09:05:43;;;;;;;5.50;2.20;;;7.60;99.90;;;;;;5099740;28;20199;-58
2023/11/11 09:08:09;;;;;;;6.47;3.10;;;7.60;99.90;;;;;;5100630;28;20403;-59
2023/11/11 09:10:36;;;;;;;7.32;3.22;;;7.70;99.90;;;;;;5098198;28;20621;-52
2023/11/11 09:13:03;;;;;;;6.15;3.22;;;7.70;99.90;;;;;;5097801;28;20721;-56
2023/11/11 09:15:29;;;;;;;7.70;2.97;;;7.70;99.90;;;;;;5098649;28;20641;-56
2023/11/11 09:17:55;;;;;;;4.78;2.85;;;7.80;99.90;;;;;;5098816;28;20185;-54
2023/11/11 09:20:22;;;;;;;7.43;2.83;;;7.70;99.90;;;;;;5098755;28;20522;-58
2023/11/11 09:22:49;;;;;;;4.47;1.92;;;7.80;99.90;;;;;;5099266;28;20354;-56
2023/11/11 09:25:15;;;;;;;3.35;1.90;;;7.80;99.90;;;;;;5100024;28;20193;-57
2023/11/11 09:27:41;;;;;;;3.65;1.80;;;7.70;99.90;;;;;;5104131;28;21052;-59
2023/11/11 09:30:08;;;;;;;2.80;1.50;;;7.70;99.90;;;;;;5102782;28;20193;-57
2023/11/11 09:32:35;;;;;;;2.00;1.00;;;7.70;99.90;;;;;;5103869;28;20185;-56
2023/11/11 09:35:02;;;;;;;0.73;0.60;;;7.60;99.90;;;;;;5090202;28;20637;-57
2023/11/11 09:37:28;;;;;;;1.58;0.77;;;7.60;99.90;;;;;;5102368;28;20186;-58
2023/11/11 09:39:54;;;;;;;2.58;0.90;;;7.50;99.90;;;;;;5085158;28;20195;-56
2023/11/11 09:42:20;;;;;;;2.50;0.85;;;7.40;99.90;;;;;;5101144;28;20299;-59
2023/11/11 09:44:46;;;;;;;5.40;0.85;;;7.40;99.90;;;;;;5097957;28;20212;-59
2023/11/11 09:47:16;;;;;;;8.38;1.10;;;7.40;99.90;;;;;;5101271;28;20242;-54
2023/11/11 09:49:42;;;;;;;2.08;1.02;;;7.30;99.90;;;;;;5101755;28;20230;-56
2023/11/11 09:52:11;;;;;;;5.47;1.15;;;7.40;99.90;;;;;;5101464;28;20185;-55
2023/11/11 09:54:42;;;;;;;3.92;1.52;;;7.30;99.90;;;;;;5103106;28;20181;-55
2023/11/11 09:57:10;;;;;;;4.90;2.42;;;7.40;99.90;;;;;;5102869;28;20181;-53
2023/11/11 09:59:37;;;;;;;4.05;1.50;;;7.40;99.90;;;;;;5090999;28;20193;-53
2023/11/11 10:02:05;;;;;;;4.18;1.98;;;7.40;99.90;;;;;;5101907;28;20263;-55
2023/11/11 10:04:31;;;;;;;7.50;2.80;;;7.50;99.90;;;;;;5092414;28;21042;-57
2023/11/11 10:06:57;;;;;;;10.07;4.03;;;7.50;99.90;;;;;;5100923;28;20181;-53
2023/11/11 10:09:24;;;;;;;9.15;3.80;;;7.60;99.90;;;;;;5102475;28;20185;-56
2023/11/11 10:11:51;;;;;;;12.65;4.82;;;7.60;99.90;;;;;;5102202;28;20197;-57
2023/11/11 10:14:21;;;;;;;26.52;12.05;;;7.70;99.90;;;;;;5103850;28;20189;-53
2023/11/11 10:16:48;;;;;;;11.77;3.67;;;7.80;99.90;;;;;;5101797;28;20224;-55
2023/11/11 10:19:14;;;;;;;8.32;3.03;;;7.80;99.90;;;;;;5103703;28;20204;-54
2023/11/11 10:21:41;;;;;;;6.80;2.70;;;7.90;99.90;;;;;;5102022;28;20573;-53
2023/11/11 10:24:13;;;;;;;5.18;2.65;;;7.90;99.90;;;;;;5092369;28;20213;-59
2023/11/11 10:26:39;;;;;;;7.07;2.90;;;7.90;99.90;;;;;;5101078;28;20204;-56
2023/11/11 10:29:08;;;;;;;8.60;2.75;;;7.90;99.90;;;;;;5101235;28;20213;-57
2023/11/11 10:31:39;;;;;;;9.43;4.28;;;7.90;99.90;;;;;;5098335;28;20577;-56
2023/11/11 10:34:05;;;;;;;4.60;2.20;;;7.90;99.90;;;;;;5099411;28;20185;-59
2023/11/11 10:36:42;;;;;;;6.88;2.75;;;8.00;99.90;;;;;;5094871;28;20331;-55
2023/11/11 10:39:10;;;;;;;5.57;1.83;;;7.90;99.90;;;;;;5099705;28;20215;-60
2023/11/11 10:41:36;;;;;;;6.43;1.65;;;8.00;99.90;;;;;;5100488;28;20257;-58
2023/11/11 10:44:06;;;;;;;6.43;1.98;;;8.10;99.90;;;;;;5093267;28;20236;-58
2023/11/11 10:46:36;;;;;;;6.75;2.10;;;8.10;99.90;;;;;;5098166;28;20300;-60
2023/11/11 10:49:12;;;;;;;5.22;1.67;;;8.20;99.90;;;;;;5101239;28;20209;-57
2023/11/11 10:51:40;;;;;;;10.55;2.58;;;8.30;99.90;;;;;;5100044;28;20372;-59
2023/11/11 10:54:08;;;;;;;7.07;2.38;;;8.40;99.90;;;;;;5098936;28;20261;-55
2023/11/11 10:56:34;;;;;;;6.55;2.70;;;8.40;99.90;;;;;;5099915;28;20181;-57
2023/11/11 10:59:05;;;;;;;4.80;2.30;;;8.60;99.90;;;;;;5098755;28;20185;-55
2023/11/11 11:01:33;;;;;;;7.43;2.40;;;8.60;99.90;;;;;;5099949;28;20557;-56
2023/11/11 11:04:01;;;;;;;9.18;2.85;;;8.70;99.90;;;;;;5100316;28;20236;-57
2023/11/11 11:07:09;;;;;;;7.25;2.50;;;8.70;99.90;;;;;;5100295;28;20224;-57
2023/11/11 11:10:07;;;;;;;5.95;2.20;;;8.70;99.90;;;;;;5021157;28;20839;-58
2023/11/11 11:12:55;;;;;;;8.57;2.20;;;8.80;99.90;;;;;;5100815;28;20193;-54
2023/11/11 11:15:21;;;;;;;7.70;2.10;;;8.90;99.90;;;;;;5097248;28;20216;-58
2023/11/11 11:17:51;;;;;;;7.93;2.28;;;8.90;99.90;;;;;;5098675;28;20669;-59
2023/11/11 11:20:26;;;;;;;5.18;2.25;;;8.80;99.90;;;;;;5099850;28;20213;-56
2023/11/11 11:22:59;;;;;;;7.82;2.88;;;8.80;99.90;;;;;;5098876;28;20227;-57
2023/11/11 11:25:41;;;;;;;10.60;3.72;;;8.80;99.90;;;;;;5100027;28;20249;-58
2023/11/11 11:28:14;;;;;;;12.27;3.80;;;8.80;99.90;;;;;;5099869;28;20173;-58
2023/11/11 11:30:53;;;;;;;11.98;3.55;;;8.90;99.90;;;;;;5098471;28;20182;-55
2023/11/11 11:33:27;;;;;;;7.10;1.88;;;8.90;99.90;;;;;;5098945;28;20558;-58
2023/11/11 11:36:06;;;;;;;8.07;2.25;;;8.90;99.90;;;;;;5097606;28;20709;-56
2023/11/11 11:38:38;;;;;;;9.80;2.00;;;8.80;99.90;;;;;;5100490;28;20220;-56
2023/11/11 11:41:21;;;;;;;9.63;2.22;;;8.80;99.90;;;;;;5071947;28;20619;-51
2023/11/11 11:43:54;;;;;;;5.88;1.92;;;8.80;99.90;;;;;;5116479;27;20263;-57
2023/11/11 11:46:21;;;;;;;8.75;1.92;;;8.80;99.90;;;;;;5119163;27;20179;-56
2023/11/11 11:48:49;;;;;;;6.47;1.85;;;8.80;99.90;;;;;;5096943;27;20214;-60
2023/11/11 11:51:18;;;;;;;11.07;2.05;;;8.80;99.90;;;;;;5097726;27;20283;-57
2023/11/11 11:53:46;;;;;;;7.25;1.98;;;8.80;99.90;;;;;;5120437;27;20215;-52
2023/11/11 11:56:32;;;;;;;10.95;2.17;;;8.80;99.90;;;;;;5118752;27;20199;-54
2023/11/11 11:59:02;;;;;;;10.88;1.60;;;8.80;99.90;;;;;;5119288;27;20522;-54
2023/11/11 12:01:36;;;;;;;8.05;2.55;;;8.80;99.90;;;;;;5119250;27;20331;-56
2023/11/11 12:04:03;;;;;;;8.23;2.53;;;8.80;99.90;;;;;;5096559;27;20208;-58
2023/11/11 12:06:29;;;;;;;13.57;3.38;;;8.80;99.90;;;;;;5117249;27;20188;-54
2023/11/11 12:08:59;;;;;;;11.68;3.70;;;8.80;99.90;;;;;;5118636;27;20180;-58
2023/11/11 12:11:27;;;;;;;7.07;2.70;;;8.90;99.90;;;;;;5118878;27;20204;-57
2023/11/11 12:13:54;;;;;;;4.95;2.35;;;8.90;99.90;;;;;;5120372;27;20187;-57
2023/11/11 12:16:34;;;;;;;5.45;1.75;;;8.90;99.90;;;;;;5099891;27;20361;-59
2023/11/11 12:19:07;;;;;;;4.47;2.00;;;9.00;99.90;;;;;;5120164;27;20632;-59
2023/11/11 12:21:34;;;;;;;6.43;1.80;;;9.00;99.90;;;;;;5117843;27;20180;-55
2023/11/11 12:24:00;;;;;;;12.55;2.40;;;9.00;99.90;;;;;;5102247;27;20224;-57
2023/11/11 12:26:28;;;;;;;9.15;2.30;;;9.00;99.90;;;;;;5118113;27;20272;-57
2023/11/11 12:28:55;;;;;;;10.15;2.40;;;9.10;99.90;;;;;;5119912;27;20172;-57
2023/11/11 12:31:21;;;;;;;10.23;2.60;;;9.10;99.90;;;;;;5101002;27;20915;-54
2023/11/11 12:33:49;;;;;;;6.68;2.50;;;9.10;99.90;;;;;;5119282;27;20256;-57
2023/11/11 12:36:16;;;;;;;14.55;7.38;;;9.20;99.90;;;;;;5119024;27;20628;-55
2023/11/11 12:38:45;;;;;;;6.75;2.92;;;9.20;99.90;;;;;;5119222;27;20287;-59
2023/11/11 12:41:11;;;;;;;11.82;3.38;;;9.20;99.90;;;;;;5118607;28;20202;-55
2023/11/11 12:43:39;;;;;;;7.90;3.10;;;9.30;99.90;;;;;;5101208;27;20236;-60
2023/11/11 12:46:14;;;;;;;8.85;2.92;;;9.30;99.90;;;;;;5118794;27;20180;-55
2023/11/11 12:48:40;;;;;;;7.80;2.70;;;9.30;99.90;;;;;;5101180;28;20199;-59
2023/11/11 12:51:26;;;;;;;5.97;2.60;;;9.30;99.90;;;;;;5118500;28;20185;-58
2023/11/11 12:53:53;;;;;;;9.90;3.05;;;9.40;99.90;;;;;;5118994;28;20164;-59
2023/11/11 12:56:20;;;;;;;11.27;3.95;;;9.40;99.90;;;;;;5119195;28;20208;-58
2023/11/11 12:58:46;;;;;;;9.98;3.13;;;9.40;99.90;;;;;;5121096;27;20188;-58